Time;durP1;ratioP1;P1;durP2;ratioP2;P2;SDS_P1;SDS_P2;PMS_P1;PMS_P2;Temp;Humidity;BMP_temperature;BMP_pressure;BME280_temperature;BME280_humidity;BME280_pressure;Samples;Min_cycle;Max_cycle;Signal;HPM_P1;HPM_P2
2023/06/15 00:08:10;;;;;;;4.27;3.57;;;18.90;53.00;;;;;;21082274;28;20247;-65
2023/06/15 00:18:12;;;;;;;7.83;3.80;;;18.70;53.20;;;;;;21081675;28;20730;-66
2023/06/15 00:28:14;;;;;;;7.00;4.10;;;18.60;53.70;;;;;;21081731;28;20291;-66
2023/06/15 00:38:16;;;;;;;4.40;3.70;;;18.40;54.50;;;;;;21081728;28;20301;-71
2023/06/15 00:48:18;;;;;;;5.87;4.10;;;18.30;55.10;;;;;;21081604;28;20787;-66
2023/06/15 00:58:19;;;;;;;6.50;3.73;;;18.30;55.60;;;;;;21080245;28;20605;-66
2023/06/15 01:08:24;;;;;;;4.40;4.00;;;18.10;56.00;;;;;;21079101;28;20250;-71
2023/06/15 01:18:29;;;;;;;7.33;3.53;;;18.10;56.30;;;;;;21079329;28;20260;-71
2023/06/15 01:28:33;;;;;;;5.73;3.80;;;17.80;56.70;;;;;;21095680;28;20242;-72
2023/06/15 01:38:35;;;;;;;6.90;4.10;;;17.70;57.10;;;;;;21094984;28;20676;-67
2023/06/15 01:48:37;;;;;;;7.70;4.40;;;17.60;57.70;;;;;;21094293;28;20249;-63
2023/06/15 01:58:38;;;;;;;5.90;4.60;;;17.40;58.00;;;;;;21093863;28;20207;-65
2023/06/15 02:08:40;;;;;;;7.20;4.70;;;17.20;58.80;;;;;;21092264;28;20626;-66
2023/06/15 02:18:44;;;;;;;8.90;4.53;;;17.00;59.50;;;;;;21091724;28;20211;-65
2023/06/15 02:28:46;;;;;;;5.73;4.50;;;16.80;59.80;;;;;;21091074;28;20467;-67
2023/06/15 02:38:48;;;;;;;5.57;4.30;;;16.70;60.30;;;;;;21089386;28;20821;-64
2023/06/15 02:48:51;;;;;;;7.10;4.60;;;16.60;60.80;;;;;;21089115;28;20329;-64
2023/06/15 02:58:57;;;;;;;7.27;4.60;;;16.50;61.50;;;;;;21088922;28;20225;-66
2023/06/15 03:08:58;;;;;;;5.57;4.60;;;16.30;62.00;;;;;;21087555;28;20234;-66
2023/06/15 03:19:01;;;;;;;10.43;4.47;;;16.30;62.70;;;;;;21088080;28;20222;-64
2023/06/15 03:29:03;;;;;;;5.37;4.10;;;16.20;63.10;;;;;;21086343;28;20723;-63
2023/06/15 03:39:06;;;;;;;8.07;4.83;;;16.10;63.70;;;;;;21085103;28;20666;-64
2023/06/15 03:49:10;;;;;;;5.40;4.50;;;16.00;64.20;;;;;;21083505;28;20236;-64
2023/06/15 03:59:12;;;;;;;8.27;4.90;;;15.90;64.50;;;;;;21084155;28;20206;-64
2023/06/15 04:09:14;;;;;;;9.57;5.20;;;15.90;65.20;;;;;;21082993;28;20251;-64
2023/06/15 04:19:16;;;;;;;10.27;5.10;;;16.00;65.60;;;;;;21082302;28;20672;-63
2023/06/15 04:29:18;;;;;;;9.30;5.10;;;16.10;65.90;;;;;;21081821;28;20701;-72
2023/06/15 04:39:26;;;;;;;8.50;4.90;;;16.30;66.00;;;;;;21098691;28;20206;-66
2023/06/15 04:49:33;;;;;;;8.57;5.50;;;16.40;66.60;;;;;;21136022;28;20352;-65
2023/06/15 04:59:38;;;;;;;14.63;6.23;;;16.50;66.70;;;;;;21098554;28;20724;-71
2023/06/15 05:09:40;;;;;;;17.33;5.50;;;16.70;67.00;;;;;;21125465;28;20244;-70
2023/06/15 05:19:43;;;;;;;7.60;4.40;;;17.00;67.10;;;;;;21091283;28;20201;-69
2023/06/15 05:29:46;;;;;;;25.83;5.70;;;17.20;67.00;;;;;;21112430;28;20319;-67
2023/06/15 05:39:47;;;;;;;19.37;6.17;;;17.60;66.80;;;;;;21120099;28;20662;-74
2023/06/15 05:49:49;;;;;;;23.47;6.50;;;17.90;66.00;;;;;;21102283;28;20241;-77
2023/06/15 05:59:51;;;;;;;16.17;6.37;;;18.10;65.40;;;;;;21160616;28;20207;-69
2023/06/15 06:09:53;;;;;;;7.27;4.93;;;18.40;64.80;;;;;;21165249;28;20248;-71
2023/06/15 06:19:55;;;;;;;7.83;4.97;;;18.80;64.00;;;;;;21157475;28;20207;-71
2023/06/15 06:29:59;;;;;;;14.60;5.73;;;19.10;63.20;;;;;;21140327;28;20264;-70
2023/06/15 06:40:00;;;;;;;10.33;4.53;;;19.40;62.50;;;;;;21153880;28;20299;-71
2023/06/15 06:50:05;;;;;;;4.70;4.30;;;19.80;61.80;;;;;;21178250;28;20232;-72
2023/06/15 07:00:08;;;;;;;5.40;4.47;;;20.20;61.00;;;;;;21174346;28;20671;-63
2023/06/15 07:10:10;;;;;;;9.23;4.80;;;20.50;59.90;;;;;;21171315;28;20690;-64
2023/06/15 07:20:12;;;;;;;4.60;4.20;;;20.80;59.00;;;;;;21170643;28;20292;-64
2023/06/15 07:30:14;;;;;;;5.27;4.47;;;21.10;57.60;;;;;;21170512;28;20600;-64
2023/06/15 07:40:16;;;;;;;5.50;4.40;;;21.30;56.30;;;;;;21169346;28;20202;-66
2023/06/15 07:50:19;;;;;;;6.00;4.00;;;21.60;54.60;;;;;;21168044;28;20229;-67
2023/06/15 08:00:22;;;;;;;5.40;4.57;;;21.70;54.00;;;;;;21167014;28;20206;-64
2023/06/15 08:10:24;;;;;;;5.17;4.00;;;22.00;52.50;;;;;;21166720;28;20244;-67
2023/06/15 08:20:26;;;;;;;10.73;5.23;;;22.10;52.80;;;;;;21165787;28;20267;-64
2023/06/15 08:30:28;;;;;;;7.87;4.80;;;22.30;51.20;;;;;;21164042;28;20324;-65
2023/06/15 08:40:29;;;;;;;5.40;4.90;;;22.50;50.30;;;;;;21146664;28;20263;-68
2023/06/15 08:50:33;;;;;;;11.30;5.17;;;22.60;49.30;;;;;;21163703;28;20244;-66
2023/06/15 09:00:35;;;;;;;8.00;4.90;;;22.90;48.50;;;;;;21163376;28;20603;-68
2023/06/15 09:10:41;;;;;;;8.87;5.30;;;23.00;47.20;;;;;;21162705;28;20597;-70
2023/06/15 09:20:43;;;;;;;9.90;4.90;;;23.10;47.00;;;;;;21162244;28;20578;-72
2023/06/15 09:30:52;;;;;;;4.40;4.00;;;23.40;46.40;;;;;;21162770;28;20225;-71
2023/06/15 09:40:54;;;;;;;5.70;4.50;;;23.60;45.70;;;;;;21165326;28;20322;-71
2023/06/15 09:51:01;;;;;;;7.23;4.50;;;23.60;45.70;;;;;;21177846;28;20267;-69
2023/06/15 10:01:04;;;;;;;5.60;4.53;;;23.70;46.00;;;;;;21176963;28;20302;-66
2023/06/15 10:11:06;;;;;;;9.47;4.20;;;23.90;46.10;;;;;;21176335;28;20238;-64
2023/06/15 10:21:14;;;;;;;5.47;4.03;;;24.40;46.00;;;;;;21175516;28;20213;-64
2023/06/15 10:31:31;;;;;;;8.63;3.97;;;24.80;45.90;;;;;;21174796;28;20238;-66
2023/06/15 10:41:33;;;;;;;5.40;3.90;;;24.90;45.10;;;;;;21174151;28;20206;-65
2023/06/15 10:51:39;;;;;;;5.57;3.70;;;25.00;44.00;;;;;;21172559;28;20226;-66
2023/06/15 11:01:41;;;;;;;5.20;3.30;;;25.20;43.80;;;;;;21171734;28;20209;-65
2023/06/15 11:11:43;;;;;;;4.30;2.93;;;25.20;43.30;;;;;;21171166;28;20238;-65
2023/06/15 11:22:05;;;;;;;5.30;3.30;;;25.70;42.30;;;;;;21170063;28;20671;-67
2023/06/15 11:32:14;;;;;;;7.97;3.20;;;25.80;41.90;;;;;;21151283;28;20328;-69
2023/06/15 11:42:16;;;;;;;6.67;3.67;;;25.50;42.10;;;;;;21170629;28;20214;-65
2023/06/15 11:52:18;;;;;;;5.03;3.67;;;25.70;42.20;;;;;;21167869;28;20248;-64
2023/06/15 12:02:20;;;;;;;7.40;3.60;;;25.80;42.30;;;;;;21167510;28;20206;-66
2023/06/15 12:12:56;;;;;;;5.67;3.90;;;25.50;42.50;;;;;;21165815;28;20237;-67
2023/06/15 12:23:00;;;;;;;6.00;3.00;;;25.50;42.40;;;;;;21164251;28;20670;-62
2023/06/15 12:33:02;;;;;;;3.63;2.97;;;25.30;42.10;;;;;;21114569;28;20244;-68
2023/06/15 12:43:04;;;;;;;5.47;4.03;;;25.30;41.90;;;;;;21139427;28;20207;-69
2023/06/15 12:53:06;;;;;;;8.10;4.20;;;25.40;41.60;;;;;;21079044;28;20241;-69
2023/06/15 13:03:08;;;;;;;6.03;4.50;;;25.40;42.10;;;;;;21059106;28;20235;-70
2023/06/15 13:13:11;;;;;;;6.67;3.60;;;25.50;42.40;;;;;;21078345;28;20284;-69
2023/06/15 13:23:14;;;;;;;9.73;3.50;;;25.60;42.60;;;;;;21077265;28;20286;-70
2023/06/15 13:33:16;;;;;;;5.97;3.00;;;25.50;42.90;;;;;;21077162;28;20235;-69
2023/06/15 13:43:19;;;;;;;4.90;2.50;;;25.70;42.60;;;;;;21077268;28;20673;-64
2023/06/15 13:53:21;;;;;;;4.07;3.00;;;26.40;41.20;;;;;;21076314;28;20241;-66
2023/06/15 14:03:23;;;;;;;4.70;2.93;;;26.90;39.60;;;;;;21075763;28;20254;-65
2023/06/15 14:13:26;;;;;;;30.23;15.33;;;27.00;39.20;;;;;;21075540;28;20697;-69
2023/06/15 14:23:28;;;;;;;5.57;3.80;;;26.70;39.30;;;;;;21075056;28;20579;-68
2023/06/15 14:33:30;;;;;;;4.93;3.30;;;26.00;40.90;;;;;;21083572;28;20230;-63
2023/06/15 14:43:31;;;;;;;6.33;2.90;;;25.50;42.90;;;;;;21090263;28;20206;-68
2023/06/15 14:53:33;;;;;;;7.80;3.07;;;25.90;43.00;;;;;;21089145;28;20698;-67
2023/06/15 15:03:35;;;;;;;7.63;3.10;;;27.50;40.50;;;;;;21096720;28;20241;-65
2023/06/15 15:13:37;;;;;;;5.18;3.13;;;29.20;37.90;;;;;;21088616;28;20267;-64
2023/06/15 15:23:39;;;;;;;5.45;3.20;;;29.30;36.90;;;;;;21086361;28;20289;-64
2023/06/15 15:33:40;;;;;;;10.48;4.13;;;30.60;35.30;;;;;;21067367;28;20241;-79
2023/06/15 15:43:42;;;;;;;6.60;2.83;;;30.40;34.60;;;;;;21085543;28;20554;-67
2023/06/15 15:53:44;;;;;;;7.07;3.53;;;30.50;34.30;;;;;;21084225;28;20661;-75
2023/06/15 16:03:46;;;;;;;8.32;3.03;;;33.50;31.20;;;;;;21083080;28;20334;-75
2023/06/15 16:13:49;;;;;;;5.20;2.97;;;35.00;29.70;;;;;;21082556;28;20329;-77
2023/06/15 16:23:51;;;;;;;3.60;2.72;;;32.90;30.50;;;;;;21082251;28;20293;-74
2023/06/15 16:33:52;;;;;;;7.28;3.65;;;35.10;29.30;;;;;;21082857;28;20230;-68
2023/06/15 16:43:54;;;;;;;12.90;2.78;;;32.90;30.40;;;;;;21082014;28;20649;-72
2023/06/15 16:53:56;;;;;;;3.78;3.25;;;31.40;31.40;;;;;;21113268;28;20226;-66
2023/06/15 17:03:58;;;;;;;6.03;3.17;;;29.10;33.00;;;;;;21108133;28;20632;-63
2023/06/15 17:14:00;;;;;;;8.47;3.67;;;27.70;34.50;;;;;;21079755;28;20230;-67
2023/06/15 17:24:03;;;;;;;3.57;3.10;;;27.00;35.50;;;;;;21079901;28;20206;-74
2023/06/15 17:34:06;;;;;;;6.73;3.00;;;26.40;36.30;;;;;;21079288;28;20235;-64
2023/06/15 17:44:08;;;;;;;4.60;3.10;;;26.20;36.60;;;;;;21081761;28;20699;-67
2023/06/15 17:54:10;;;;;;;5.15;3.33;;;26.30;36.10;;;;;;21089722;28;20273;-74
2023/06/15 18:04:12;;;;;;;6.65;2.90;;;31.30;32.30;;;;;;21080485;28;20713;-62
2023/06/15 18:14:14;;;;;;;7.43;3.20;;;32.70;30.10;;;;;;21112316;28;20230;-62
2023/06/15 18:24:15;;;;;;;6.13;3.03;;;29.00;32.80;;;;;;21155025;28;20212;-65
2023/06/15 18:34:19;;;;;;;6.27;3.70;;;26.90;35.00;;;;;;21096814;28;20234;-70
2023/06/15 18:44:21;;;;;;;5.33;3.70;;;26.60;35.50;;;;;;21088565;28;20207;-68
2023/06/15 18:54:22;;;;;;;5.60;4.30;;;26.00;36.10;;;;;;21109536;28;20299;-63
2023/06/15 19:04:24;;;;;;;7.50;3.37;;;25.50;37.20;;;;;;21133397;28;20226;-62
2023/06/15 19:14:36;;;;;;;6.63;3.40;;;25.10;38.50;;;;;;21095014;28;20262;-62
2023/06/15 19:24:39;;;;;;;4.70;3.10;;;24.70;39.70;;;;;;21104496;28;20198;-62
2023/06/15 19:34:41;;;;;;;12.80;7.50;;;24.30;40.20;;;;;;21117507;28;20234;-61
2023/06/15 19:44:44;;;;;;;9.40;4.30;;;23.90;41.00;;;;;;21085519;28;20206;-60
2023/06/15 19:54:45;;;;;;;9.03;4.10;;;23.50;42.50;;;;;;21084934;28;20263;-61
2023/06/15 20:04:47;;;;;;;7.50;3.50;;;23.10;44.50;;;;;;21152472;28;20230;-65
2023/06/15 20:14:49;;;;;;;6.20;3.70;;;22.80;44.80;;;;;;21146707;28;20236;-62
2023/06/15 20:24:51;;;;;;;9.27;4.20;;;22.60;44.70;;;;;;21135175;28;20302;-60
2023/06/15 20:34:53;;;;;;;8.67;4.00;;;22.30;45.00;;;;;;21114989;28;20322;-60
2023/06/15 20:44:55;;;;;;;9.10;3.70;;;21.90;47.10;;;;;;21122833;28;20206;-60
2023/06/15 20:54:57;;;;;;;6.80;4.07;;;21.60;47.90;;;;;;21116458;28;20268;-60
2023/06/15 21:04:59;;;;;;;8.07;3.90;;;21.30;49.20;;;;;;21112897;28;20260;-69
2023/06/15 21:15:01;;;;;;;7.63;4.17;;;21.00;49.30;;;;;;21121887;28;20726;-62
2023/06/15 21:25:03;;;;;;;6.87;3.60;;;20.80;49.20;;;;;;21114332;28;20204;-67
2023/06/15 21:35:06;;;;;;;8.70;4.50;;;20.70;50.10;;;;;;21111599;28;20768;-68
2023/06/15 21:45:10;;;;;;;6.87;4.23;;;20.40;50.50;;;;;;21137416;28;20200;-69
2023/06/15 21:55:15;;;;;;;10.27;4.10;;;20.20;50.30;;;;;;21128573;28;20237;-69
2023/06/15 22:05:19;;;;;;;6.70;3.73;;;20.10;50.60;;;;;;21109065;28;20236;-69
2023/06/15 22:15:21;;;;;;;5.73;3.63;;;19.70;51.00;;;;;;21136314;28;20272;-61
2023/06/15 22:25:23;;;;;;;5.13;3.90;;;19.50;51.20;;;;;;21126986;28;20660;-60
2023/06/15 22:35:25;;;;;;;4.93;3.70;;;19.40;51.80;;;;;;21124909;28;20243;-60
2023/06/15 22:45:27;;;;;;;5.60;4.10;;;19.20;52.20;;;;;;21131741;28;20207;-61
2023/06/15 22:55:30;;;;;;;6.73;4.20;;;18.80;52.50;;;;;;21122550;28;20710;-62
2023/06/15 23:05:33;;;;;;;7.90;4.07;;;18.60;53.00;;;;;;21123731;28;20768;-61
2023/06/15 23:15:35;;;;;;;7.30;3.97;;;18.50;53.30;;;;;;21130934;28;20711;-60
2023/06/15 23:25:39;;;;;;;6.37;4.10;;;18.20;54.00;;;;;;21121184;28;20297;-61
2023/06/15 23:35:41;;;;;;;6.90;4.00;;;;;;;;;;21122229;28;20244;-62
2023/06/15 23:45:43;;;;;;;4.93;3.77;;;17.80;54.60;;;;;;21128182;28;20245;-61
2023/06/15 23:55:45;;;;;;;6.80;4.00;;;17.70;55.00;;;;;;21118632;28;20234;-61
